DuBois Regional Airport
KDUJ : now visible

Aeroporto :











RITROVATECI SU...

 
LOGIN :

Iscrizione | Disclaimer

   EN    FR    IT 

 









Sommario :    VFR   VFR Marginale   IFR   IFR Intensivo   IFR Molto Intensivo
Visibilità : 
Base nubi : 
>= 8 km
>= 3000ft
5 / 8 km
1000 / 3000 ft
1500m / 5 km
500 / 1000 ft
800 / 1500m
200 / 500 ft
< 800m
< 200 ft
Simboli :   Temporali  Nebbia  Neve Forte  Precipitazioni Forti  Vento > 20 kt






- Altitudine del aeroporto : 1817 ft
- Codice IATA : DUJ


KDUJ - DuBois Regional

ULTIMO METAR :
  • 272103Z AUTO 28009KT 9SM BKN010 BKN014 OVC048 M01/M03 A2973 RMK AO2 T10061033

METARs OBSOLETI :
  • 272053Z AUTO 27009KT 9SM SCT009 BKN015 OVC048 M01/M03 A2973 RMK AO2 SNE03B35E47 SLP084 P0000 60001 T10061033 53004
  • 272037Z AUTO 27009KT 1 3/4SM -SN SCT009 BKN015 OVC031 M01/M03 A2973 RMK AO2 SNE03B35 P0000 T10061033
  • 272033Z AUTO 28010KT 6SM HZ FEW009 BKN013 OVC031 M01/M03 A2973 RMK AO2 SNE03 P0000 T10061033
  • 272003Z AUTO 29009KT 5SM HZ FEW008 BKN014 OVC029 M01/M03 A2972 RMK AO2 SNE03 P0000 T10061033
  • 271853Z AUTO 27010KT 10SM BKN010 BKN014 OVC021 00/M03 A2971 RMK AO2 CIG 009V012 SLP076 T00001028
  • 271842Z AUTO 26012KT 9SM BKN010 BKN013 OVC019 00/M03 A2971 RMK AO2 T00001028

TAF KDUJ
Valido dal 27 a 21 ore il 28 a 18 ore UTC


272100Z 2721/2818 26011KT P6SM SCT009 OVC015
TEMPO 2721/2723 -SN BKN009
FM280000 30007KT P6SM OVC010
FM280600 30006KT P6SM OVC007
FM280900 30006KT P6SM OVC012



MetMap, La meteo Aeronautica in un colpo d'occhio ! - Copyright ORBIFLY Dicembre 2007 - Disclaimer

ORBIFLY MET'MAP TEAM :

Programmazione e sviluppo : Alexandra Zaïnal
Concezione : Baudouin d'Aumeries
Aiuto per la programmazione : Marc-Olivier Méhu
Supporto tecnico e logistico : Manuel Goepfert
Aiuto per la traduzione : Arnaldo La Scala

Contatto : metmap@orbifly.com




FONTI E CREDITI :

   NOAA       Earth
Advisory